Terminal Aerodrome Forecast
Issued by NWS

Home | Current Version | Previous Version | Text Only | Print | Product List | Glossary On
Versions: 1 2 3 4 5 6 7 8 9 10 11 12 13 14 15 16 17 18 19 20 21 22 23
261
FTUS43 KICT 230722 AAA
TAFCNU
TAF AMD
KCNU 230722Z 2307/2406 13009KT P6SM SCT025 OVC035
     FM230900 13013KT P6SM OVC025
     FM231200 16017G25KT P6SM OVC022
     FM231800 17022G30KT P6SM SCT020 BKN040
     FM232000 17025G35KT P6SM SCT040=

USA.gov is the U.S. government's official web portal to all federal, state and local government web resources and services.